Time;durP1;ratioP1;P1;durP2;ratioP2;P2;SDS_P1;SDS_P2;PMS_P1;PMS_P2;Temp;Humidity;BMP_temperature;BMP_pressure;BME280_temperature;BME280_humidity;BME280_pressure;Samples;Min_cycle;Max_cycle;Signal;HPM_P1;HPM_P2
2022/10/15 00:00:31;;;;;;;1.15;0.38;;;;;;;-145.69;100.00;52547.38;5076114;28;20202;-83
2022/10/15 00:02:57;;;;;;;0.68;0.68;;;;;;;-145.69;100.00;52585.00;5076211;28;20210;-84
2022/10/15 00:05:24;;;;;;;3.63;0.40;;;;;;;-145.69;100.00;52579.06;5076195;28;20210;-84
2022/10/15 00:07:50;;;;;;;0.30;0.30;;;;;;;-145.69;100.00;52569.16;5076028;28;20441;-82
2022/10/15 00:10:19;;;;;;;0.22;0.22;;;;;;;-145.69;100.00;52579.06;5075950;28;20223;-84
2022/10/15 00:12:45;;;;;;;0.30;0.30;;;;;;;-145.69;100.00;52583.00;5076503;28;20210;-84
2022/10/15 00:15:12;;;;;;;0.35;0.32;;;;;;;-145.69;100.00;52557.28;5063263;28;20206;-84
2022/10/15 00:17:39;;;;;;;0.88;0.40;;;;;;;-145.69;100.00;52555.28;5056058;28;20775;-83
2022/10/15 00:20:07;;;;;;;0.45;0.38;;;;;;;-145.69;100.00;52575.09;5056070;28;20199;-84
2022/10/15 00:22:34;;;;;;;1.05;0.40;;;;;;;-145.69;100.00;52567.16;5056192;28;20210;-83
2022/10/15 00:25:01;;;;;;;0.35;0.30;;;;;;;-145.69;100.00;52543.41;5075841;28;20226;-83
2022/10/15 00:27:28;;;;;;;0.30;0.30;;;;;;;-145.69;100.00;52535.47;5075776;28;20567;-83
2022/10/15 00:29:55;;;;;;;1.95;0.20;;;;;;;-145.69;100.00;52555.28;5076132;28;20235;-83
2022/10/15 00:32:21;;;;;;;0.20;0.20;;;;;;;-145.69;100.00;52559.25;5075651;28;20202;-83
2022/10/15 00:34:48;;;;;;;1.77;0.20;;;;;;;-145.69;100.00;52561.22;5075690;28;20657;-83
2022/10/15 00:37:16;;;;;;;0.30;0.30;;;;;;;-145.69;100.00;52561.22;5075903;28;20216;-84
2022/10/15 00:39:42;;;;;;;0.30;0.30;;;;;;;-145.69;100.00;52563.22;5075510;28;20264;-83
2022/10/15 00:42:10;;;;;;;0.90;0.38;;;;;;;-145.69;100.00;52585.00;5075946;28;20253;-84
2022/10/15 00:44:48;;;;;;;0.20;0.20;;;;;;;-145.69;100.00;52588.97;5075717;28;20202;-84
2022/10/15 00:47:17;;;;;;;0.20;0.20;;;;;;;-145.69;100.00;52537.47;5075542;28;20195;-84
2022/10/15 00:49:48;;;;;;;4.22;0.30;;;;;;;-145.69;100.00;52579.06;5075426;28;20225;-83
2022/10/15 00:52:19;;;;;;;0.45;0.38;;;;;;;-145.69;100.00;52559.25;5075590;28;20201;-84
2022/10/15 00:54:49;;;;;;;0.35;0.30;;;;;;;-145.69;100.00;52583.00;5057017;28;20204;-83
2022/10/15 00:57:16;;;;;;;0.30;0.30;;;;;;;-145.69;100.00;52571.13;5055085;28;20222;-83
2022/10/15 00:59:48;;;;;;;0.30;0.30;;;;;;;-145.69;100.00;52575.09;5043505;28;20208;-84
2022/10/15 01:02:18;;;;;;;0.93;0.50;;;;;;;-145.69;100.00;52559.25;5035312;28;20548;-83
2022/10/15 01:04:45;;;;;;;0.28;0.28;;;;;;;-145.69;100.00;52575.09;5035357;28;20204;-83
2022/10/15 01:07:12;;;;;;;0.88;0.40;;;;;;;-145.69;100.00;52559.25;5034981;28;20211;-82
2022/10/15 01:09:41;;;;;;;0.25;0.20;;;;;;;-145.69;100.00;52559.25;5034798;28;20223;-82
2022/10/15 01:12:14;;;;;;;0.20;0.20;;;;;;;-145.69;100.00;52588.97;5034733;28;20204;-83
2022/10/15 01:14:51;;;;;;;1.02;0.50;;;;;;;-145.69;100.00;52571.13;5035001;28;20677;-83
2022/10/15 01:17:22;;;;;;;0.25;0.25;;;;;;;-145.69;100.00;52586.97;5034683;28;20210;-82
2022/10/15 01:20:43;;;;;;;0.20;0.20;;;;;;;-145.69;100.00;52598.84;5034553;28;20670;-82
2022/10/15 01:23:54;;;;;;;0.60;0.30;;;;;;;-145.69;100.00;52543.41;5026238;28;20199;-82
2022/10/15 01:26:48;;;;;;;0.40;0.30;;;;;;;-145.69;100.00;52571.13;5012437;28;20576;-82
2022/10/15 01:29:28;;;;;;;0.50;0.38;;;;;;;-145.69;100.00;52565.19;5054300;28;20692;-82
2022/10/15 01:32:03;;;;;;;0.20;0.20;;;;;;;-145.69;100.00;52559.25;5054590;28;20203;-83
2022/10/15 01:34:38;;;;;;;0.20;0.20;;;;;;;-145.69;100.00;52590.94;5054402;28;20203;-82
2022/10/15 01:37:09;;;;;;;0.65;0.30;;;;;;;-145.69;100.00;52569.16;5054418;28;20208;-83
2022/10/15 01:39:41;;;;;;;0.28;0.28;;;;;;;-145.69;100.00;52563.22;5054489;28;20569;-83
2022/10/15 01:42:16;;;;;;;0.55;0.32;;;;;;;-145.69;100.00;52563.22;5054541;28;20200;-82
2022/10/15 01:44:47;;;;;;;0.45;0.38;;;;;;;-145.69;100.00;52553.31;5054128;28;20245;-83
2022/10/15 01:47:20;;;;;;;0.35;0.35;;;;;;;-145.69;100.00;52555.28;5054134;28;20203;-82
2022/10/15 01:49:49;;;;;;;1.00;0.50;;;;;;;-145.69;100.00;52567.16;5053776;28;20581;-83
2022/10/15 01:52:26;;;;;;;0.30;0.30;;;;;;;-145.69;100.00;52571.13;5054089;28;20207;-82
2022/10/15 01:54:53;;;;;;;0.93;0.55;;;;;;;-145.69;100.00;52577.06;5048375;28;20203;-82
2022/10/15 01:57:21;;;;;;;0.38;0.38;;;;;;;-145.69;100.00;52555.28;5033790;28;20211;-80
2022/10/15 01:59:48;;;;;;;0.30;0.30;;;;;;;-145.69;100.00;52541.44;5033766;28;20200;-81
2022/10/15 02:02:16;;;;;;;0.80;0.30;;;;;;;-145.69;100.00;52535.47;5033823;28;20211;-83
2022/10/15 02:04:42;;;;;;;0.52;0.30;;;;;;;-145.69;100.00;52586.97;5050110;28;20249;-82
2022/10/15 02:07:13;;;;;;;8.77;0.50;;;;;;;-145.69;100.00;52559.25;5053933;28;20214;-83
2022/10/15 02:09:49;;;;;;;0.77;0.52;;;;;;;-145.69;100.00;52521.63;5053618;28;20721;-82
2022/10/15 02:12:30;;;;;;;1.20;0.47;;;;;;;-145.69;100.00;52557.28;5053727;28;20206;-83
2022/10/15 02:15:06;;;;;;;0.63;0.40;;;;;;;-145.69;100.00;52565.19;5054045;28;20207;-82
2022/10/15 02:17:40;;;;;;;1.10;0.40;;;;;;;-145.69;100.00;52571.13;5064002;28;20355;-82
2022/10/15 02:20:14;;;;;;;0.30;0.30;;;;;;;-145.69;100.00;52539.44;5073469;28;20208;-82
2022/10/15 02:22:46;;;;;;;0.38;0.30;;;;;;;-145.69;100.00;52559.25;5073469;28;20206;-82
2022/10/15 02:25:16;;;;;;;0.30;0.30;;;;;;;-145.69;100.00;52539.44;5073400;28;20203;-82
2022/10/15 02:27:45;;;;;;;0.20;0.20;;;;;;;-145.69;100.00;52581.03;5073494;28;20568;-82
2022/10/15 02:30:13;;;;;;;0.30;0.30;;;;;;;-145.69;100.00;52565.19;5073476;28;20231;-82
2022/10/15 02:32:42;;;;;;;1.17;0.30;;;;;;;-145.69;100.00;52537.47;5073486;28;20202;-83
2022/10/15 02:35:10;;;;;;;0.20;0.20;;;;;;;-145.69;100.00;52535.47;5073442;28;20226;-82
2022/10/15 02:37:40;;;;;;;0.40;0.28;;;;;;;-145.69;100.00;52559.25;5073253;28;20209;-82
2022/10/15 02:40:08;;;;;;;3.65;0.30;;;;;;;-145.69;100.00;52553.31;5073403;28;20293;-82
2022/10/15 02:42:35;;;;;;;0.28;0.28;;;;;;;-145.69;100.00;52551.31;5073130;28;20660;-82
2022/10/15 02:45:01;;;;;;;0.20;0.20;;;;;;;-145.69;100.00;52551.31;5073980;28;20210;-83
2022/10/15 02:47:28;;;;;;;1.02;0.20;;;;;;;-145.69;100.00;52559.25;5073352;28;20202;-83
2022/10/15 02:49:55;;;;;;;0.20;0.20;;;;;;;-145.69;100.00;52541.44;5073563;28;20223;-83
2022/10/15 02:52:22;;;;;;;0.52;0.30;;;;;;;-145.69;100.00;52533.50;5074042;28;20206;-83
2022/10/15 02:54:48;;;;;;;0.30;0.30;;;;;;;-145.69;100.00;52539.44;5074438;28;20683;-83
2022/10/15 02:57:15;;;;;;;0.22;0.22;;;;;;;-145.69;100.00;52551.31;5073987;28;20573;-83
2022/10/15 02:59:41;;;;;;;1.95;0.20;;;;;;;-145.69;100.00;52551.31;5072024;28;20209;-84
2022/10/15 03:02:08;;;;;;;1.33;0.38;;;;;;;-145.69;100.00;52533.50;5070161;28;20191;-84
2022/10/15 03:04:34;;;;;;;0.30;0.30;;;;;;;-145.69;100.00;52590.94;5034424;28;20207;-83
2022/10/15 03:07:02;;;;;;;1.60;0.28;;;;;;;-145.69;100.00;52579.06;5033229;28;20306;-83
2022/10/15 03:09:29;;;;;;;0.30;0.30;;;;;;;-145.69;100.00;52557.28;5033783;28;20211;-84
2022/10/15 03:11:55;;;;;;;1.88;0.20;;;;;;;-145.69;100.00;52581.03;5033088;28;20254;-84
2022/10/15 03:14:22;;;;;;;0.30;0.30;;;;;;;-145.69;100.00;52581.03;5034225;28;20200;-83
2022/10/15 03:16:48;;;;;;;0.30;0.30;;;;;;;-145.69;100.00;52571.13;5034215;28;20200;-84
2022/10/15 03:19:15;;;;;;;0.25;0.20;;;;;;;-145.69;100.00;52569.16;5034158;28;20730;-83
2022/10/15 03:21:41;;;;;;;1.20;0.20;;;;;;;-145.69;100.00;52545.38;5035378;28;20212;-84
2022/10/15 03:24:09;;;;;;;1.85;0.30;;;;;;;-145.69;100.00;52567.16;5034234;28;20208;-84
2022/10/15 03:26:36;;;;;;;0.25;0.25;;;;;;;-145.69;100.00;52585.00;5034131;28;20620;-84
2022/10/15 03:29:02;;;;;;;0.30;0.30;;;;;;;-145.69;100.00;52553.31;5033471;28;20196;-84
2022/10/15 03:31:29;;;;;;;0.85;0.30;;;;;;;-145.69;100.00;52588.97;5033242;28;20802;-83
2022/10/15 03:33:55;;;;;;;0.20;0.17;;;;;;;-145.69;100.00;52523.59;5033091;28;20200;-83
2022/10/15 03:36:22;;;;;;;2.00;0.30;;;;;;;-145.69;100.00;52577.06;5033327;28;20209;-83
2022/10/15 03:38:48;;;;;;;0.55;0.40;;;;;;;-145.69;100.00;52569.16;5033790;28;20196;-84
2022/10/15 03:41:16;;;;;;;0.28;0.28;;;;;;;-145.69;100.00;52543.41;5033380;28;20088;-83
2022/10/15 03:43:43;;;;;;;0.57;0.32;;;;;;;-145.69;100.00;52604.81;5033315;28;20211;-84
2022/10/15 03:46:09;;;;;;;0.32;0.20;;;;;;;-145.69;100.00;52579.06;5033198;28;20207;-83
2022/10/15 03:48:36;;;;;;;0.90;0.30;;;;;;;-145.69;100.00;52545.38;5033687;28;20207;-83
2022/10/15 03:51:02;;;;;;;0.35;0.25;;;;;;;-145.69;100.00;52563.22;5033274;28;20690;-83
2022/10/15 03:53:29;;;;;;;0.65;0.30;;;;;;;-145.69;100.00;52561.22;5033200;28;20204;-84
2022/10/15 03:55:55;;;;;;;0.52;0.30;;;;;;;-145.69;100.00;52555.28;5033107;28;20200;-83
2022/10/15 03:58:23;;;;;;;0.30;0.30;;;;;;;-145.69;100.00;52519.63;5043227;28;20195;-83
2022/10/15 04:00:49;;;;;;;0.25;0.22;;;;;;;-145.69;100.00;52555.28;5057379;28;20210;-83
2022/10/15 04:03:16;;;;;;;0.38;0.30;;;;;;;-145.69;100.00;52606.78;5053576;28;20200;-83
2022/10/15 04:05:50;;;;;;;0.20;0.20;;;;;;;-145.69;100.00;52585.00;5053219;28;20566;-83
2022/10/15 04:08:16;;;;;;;0.20;0.20;;;;;;;-145.69;100.00;52551.31;5053147;28;20196;-82
2022/10/15 04:10:43;;;;;;;1.55;0.20;;;;;;;-145.69;100.00;52567.16;5053503;28;20234;-83
2022/10/15 04:13:09;;;;;;;5.82;0.30;;;;;;;-145.69;100.00;52561.22;5057285;28;20195;-83
2022/10/15 04:15:40;;;;;;;0.20;0.20;;;;;;;-145.69;100.00;52583.00;5056818;28;20199;-83
2022/10/15 04:18:06;;;;;;;0.40;0.40;;;;;;;-145.69;100.00;52567.16;5057400;28;20231;-83
2022/10/15 04:20:33;;;;;;;0.30;0.30;;;;;;;-145.69;100.00;52567.16;5056858;28;20662;-84
2022/10/15 04:22:59;;;;;;;0.28;0.28;;;;;;;-145.69;100.00;52515.69;5056200;28;20203;-84
2022/10/15 04:25:26;;;;;;;0.20;0.20;;;;;;;-145.69;100.00;52551.31;5057386;28;20207;-84
2022/10/15 04:27:53;;;;;;;0.30;0.20;;;;;;;-145.69;100.00;52563.22;5066856;28;20438;-84
2022/10/15 04:30:19;;;;;;;0.35;0.32;;;;;;;-145.69;100.00;52583.00;5083074;28;20225;-83
2022/10/15 04:32:47;;;;;;;0.20;0.20;;;;;;;-145.69;100.00;52602.81;5079109;28;20199;-83
2022/10/15 04:35:13;;;;;;;0.30;0.30;;;;;;;-145.69;100.00;52563.22;5077193;28;20548;-84
2022/10/15 04:37:40;;;;;;;1.05;0.30;;;;;;;-145.69;100.00;52557.28;5076430;28;20202;-84
2022/10/15 04:40:08;;;;;;;0.30;0.30;;;;;;;-145.69;100.00;52553.31;5076392;28;20198;-83
2022/10/15 04:42:34;;;;;;;0.88;0.30;;;;;;;-145.69;100.00;52557.28;5075537;28;20653;-83
2022/10/15 04:45:01;;;;;;;0.30;0.30;;;;;;;-145.69;100.00;52565.19;5075944;28;20195;-83
2022/10/15 04:47:27;;;;;;;0.50;0.40;;;;;;;-145.69;100.00;52567.16;5075458;28;20692;-84
2022/10/15 04:49:55;;;;;;;0.30;0.30;;;;;;;-145.69;100.00;52559.25;5075297;28;20203;-82
2022/10/15 04:52:22;;;;;;;0.40;0.40;;;;;;;-145.69;100.00;52606.78;5075134;28;20597;-82
2022/10/15 04:54:48;;;;;;;0.22;0.22;;;;;;;-145.69;100.00;52559.25;5075058;28;20615;-82
2022/10/15 04:57:15;;;;;;;0.50;0.50;;;;;;;-145.69;100.00;52561.22;5074189;28;20206;-82
2022/10/15 04:59:43;;;;;;;0.40;0.30;;;;;;;-145.69;100.00;52579.06;5075202;28;20214;-82
2022/10/15 05:02:10;;;;;;;0.30;0.30;;;;;;;-145.69;100.00;52596.88;5058698;28;20286;-83
2022/10/15 05:04:36;;;;;;;0.82;0.47;;;;;;;-145.69;100.00;52559.25;5056579;28;20195;-82
2022/10/15 05:07:04;;;;;;;1.38;0.50;;;;;;;-145.69;100.00;52585.00;5055726;28;20206;-83
2022/10/15 05:09:31;;;;;;;1.55;0.50;;;;;;;-145.69;100.00;52586.97;5055378;28;20196;-84
2022/10/15 05:11:57;;;;;;;0.40;0.40;;;;;;;-145.69;100.00;52590.94;5055340;28;20227;-83
2022/10/15 05:14:24;;;;;;;0.93;0.60;;;;;;;-145.69;100.00;52588.97;5055264;28;20200;-83
2022/10/15 05:16:50;;;;;;;0.80;0.43;;;;;;;-145.69;100.00;52596.88;5055347;28;20202;-83
2022/10/15 05:19:17;;;;;;;0.55;0.50;;;;;;;-145.69;100.00;52586.97;5054342;28;20223;-83
2022/10/15 05:21:45;;;;;;;0.60;0.40;;;;;;;-145.69;100.00;52602.81;5054524;28;20209;-82
2022/10/15 05:24:13;;;;;;;1.27;0.60;;;;;;;-145.69;100.00;52614.72;5053551;28;20272;-82
2022/10/15 05:26:39;;;;;;;0.85;0.47;;;;;;;-145.69;100.00;52551.31;5054652;28;20199;-82
2022/10/15 05:29:06;;;;;;;3.63;0.50;;;;;;;-145.69;100.00;52577.06;5054556;28;20199;-82
2022/10/15 05:31:33;;;;;;;1.23;0.82;;;;;;;-145.69;100.00;52527.56;5054516;28;20257;-83
2022/10/15 05:34:06;;;;;;;1.90;1.50;;;;;;;-145.69;100.00;52588.97;5054653;28;20199;-83
2022/10/15 05:36:33;;;;;;;2.95;1.80;;;;;;;-145.69;100.00;52563.22;5054393;28;20677;-84
2022/10/15 05:39:01;;;;;;;3.38;1.83;;;;;;;-145.69;100.00;52598.84;5054448;28;20646;-82
2022/10/15 05:41:30;;;;;;;3.45;1.90;;;;;;;-145.69;100.00;52579.06;5054310;28;20282;-82
2022/10/15 05:43:58;;;;;;;4.50;1.45;;;;;;;-145.69;100.00;52602.81;5054319;28;20207;-83
2022/10/15 05:46:25;;;;;;;5.75;1.40;;;;;;;-145.69;100.00;52555.28;5055165;28;20207;-83
2022/10/15 05:48:53;;;;;;;1.58;0.90;;;;;;;-145.69;100.00;52598.84;5073778;28;20213;-83
2022/10/15 05:51:20;;;;;;;4.43;0.80;;;;;;;-145.69;100.00;52602.81;5073898;28;20707;-83
2022/10/15 05:53:47;;;;;;;0.75;0.52;;;;;;;-145.69;100.00;52614.72;5073764;28;20681;-83
2022/10/15 05:56:14;;;;;;;0.60;0.60;;;;;;;-145.69;100.00;52569.16;5073926;28;20211;-83
2022/10/15 05:58:42;;;;;;;1.00;0.47;;;;;;;-145.69;100.00;52585.00;5073887;28;20294;-83
2022/10/15 06:01:10;;;;;;;1.25;0.57;;;;;;;-145.69;100.00;52573.13;5073847;28;20293;-84
2022/10/15 06:03:38;;;;;;;0.90;0.60;;;;;;;-145.69;100.00;52547.38;5073792;28;20202;-82
2022/10/15 06:06:05;;;;;;;0.68;0.60;;;;;;;-145.69;100.00;52577.06;5073575;28;20225;-84
2022/10/15 06:08:31;;;;;;;0.60;0.52;;;;;;;-145.69;100.00;52575.09;5073948;28;20209;-84
2022/10/15 06:11:02;;;;;;;0.95;0.60;;;;;;;-145.69;100.00;52553.31;5073604;28;20229;-84
2022/10/15 06:13:28;;;;;;;0.60;0.43;;;;;;;-145.69;100.00;52586.97;5073806;28;20209;-84
2022/10/15 06:15:56;;;;;;;0.60;0.45;;;;;;;-145.69;100.00;52575.09;5073659;28;20199;-83
2022/10/15 06:18:23;;;;;;;0.52;0.52;;;;;;;-145.69;100.00;52571.13;5055337;28;20231;-83
2022/10/15 06:20:52;;;;;;;0.68;0.52;;;;;;;-145.69;100.00;52551.31;5053638;28;20199;-83
2022/10/15 06:23:19;;;;;;;0.80;0.50;;;;;;;-145.69;100.00;52563.22;5053412;28;20199;-83
2022/10/15 06:25:45;;;;;;;1.25;0.47;;;;;;;-145.69;100.00;52586.97;5053442;28;20199;-83
2022/10/15 06:28:12;;;;;;;1.17;0.63;;;;;;;-145.69;100.00;52586.97;5053348;28;20229;-83
2022/10/15 06:30:38;;;;;;;1.75;1.05;;;;;;;-145.69;100.00;52559.25;5053137;28;20206;-82
2022/10/15 06:33:06;;;;;;;1.02;0.77;;;;;;;-145.69;100.00;52586.97;5053311;28;20234;-82
2022/10/15 06:35:34;;;;;;;1.08;0.90;;;;;;;-145.69;100.00;52590.94;5053077;28;20195;-82
2022/10/15 06:38:01;;;;;;;2.67;1.20;;;;;;;-145.69;100.00;52602.81;5052901;28;20509;-83
2022/10/15 06:40:28;;;;;;;1.48;1.00;;;;;;;-145.69;100.00;52575.09;5053112;28;20294;-83
2022/10/15 06:42:54;;;;;;;1.88;1.60;;;;;;;-145.69;100.00;52559.25;5053037;28;20207;-82
2022/10/15 06:45:21;;;;;;;2.70;1.90;;;;;;;-145.69;100.00;52586.97;5052913;28;20210;-83
2022/10/15 06:47:47;;;;;;;2.00;1.15;;;;;;;-145.69;100.00;52610.75;5067921;28;20676;-83
2022/10/15 06:50:15;;;;;;;1.95;1.58;;;;;;;-145.69;100.00;52579.06;5071775;28;20198;-82
2022/10/15 06:52:41;;;;;;;1.75;1.20;;;;;;;-145.69;100.00;52598.84;5072908;28;20222;-82
2022/10/15 06:55:09;;;;;;;1.20;1.00;;;;;;;-145.69;100.00;52610.75;5053306;28;20203;-82
2022/10/15 06:57:35;;;;;;;1.95;0.50;;;;;;;-145.69;100.00;52551.31;5032773;28;20200;-81
2022/10/15 07:00:02;;;;;;;0.90;0.70;;;;;;;-145.69;100.00;52581.03;5032942;28;20196;-82
2022/10/15 07:02:28;;;;;;;0.95;0.90;;;;;;;-145.69;100.00;52569.16;5032897;28;20655;-81
2022/10/15 07:04:55;;;;;;;3.15;0.75;;;;;;;-145.69;100.00;52563.22;5033049;28;20559;-82
2022/10/15 07:07:22;;;;;;;1.23;0.45;;;;;;;-145.69;100.00;52561.22;5033071;28;20223;-82
2022/10/15 07:09:52;;;;;;;3.00;0.40;;;;;;;-145.69;100.00;52569.16;5033037;28;20215;-83
2022/10/15 07:12:20;;;;;;;2.95;0.85;;;;;;;-145.69;100.00;52583.00;5032884;28;20625;-82
2022/10/15 07:14:47;;;;;;;0.65;0.40;;;;;;;-145.69;100.00;52585.00;5033265;28;20203;-82
2022/10/15 07:17:13;;;;;;;0.32;0.32;;;;;;;-145.69;100.00;52553.31;5053449;28;20209;-82
2022/10/15 07:19:40;;;;;;;0.80;0.30;;;;;;;-145.69;100.00;52539.44;5073299;28;20214;-81
2022/10/15 07:22:06;;;;;;;0.63;0.40;;;;;;;-145.69;100.00;52545.38;5072525;28;20443;-82
2022/10/15 07:24:34;;;;;;;0.30;0.30;;;;;;;-145.69;100.00;52575.09;5073376;28;20393;-81
2022/10/15 07:27:01;;;;;;;0.40;0.40;;;;;;;-145.69;100.00;52575.09;5073094;28;20209;-82
2022/10/15 07:29:27;;;;;;;0.30;0.30;;;;;;;-145.69;100.00;52571.13;5073047;28;20684;-82
2022/10/15 07:31:53;;;;;;;0.98;0.38;;;;;;;-145.69;100.00;52555.28;5072715;28;20226;-81
2022/10/15 07:34:21;;;;;;;0.40;0.30;;;;;;;-145.69;100.00;52579.06;5073065;28;20206;-81
2022/10/15 07:36:48;;;;;;;0.80;0.50;;;;;;;-145.69;100.00;52577.06;5072833;28;20194;-80
2022/10/15 07:39:16;;;;;;;1.05;0.40;;;;;;;-145.69;100.00;52571.13;5072488;28;20203;-81
2022/10/15 07:41:44;;;;;;;0.45;0.43;;;;;;;-145.69;100.00;52561.22;5072639;28;20199;-81
2022/10/15 07:44:11;;;;;;;2.40;0.70;;;;;;;-145.69;100.00;52571.13;5072768;28;20195;-80
2022/10/15 07:46:37;;;;;;;2.58;0.50;;;;;;;-145.69;100.00;52543.41;5066745;28;20199;-82
2022/10/15 07:49:04;;;;;;;1.00;0.40;;;;;;;-145.69;100.00;52531.53;5056471;28;20218;-83
2022/10/15 07:51:30;;;;;;;0.43;0.40;;;;;;;-145.69;100.00;52531.53;5056283;28;20227;-83
2022/10/15 07:53:56;;;;;;;0.40;0.40;;;;;;;-145.69;100.00;52517.66;5056901;28;20207;-83
2022/10/15 07:56:23;;;;;;;0.70;0.43;;;;;;;-145.69;100.00;52523.59;5056058;28;20209;-82
2022/10/15 07:58:51;;;;;;;0.45;0.35;;;;;;;-145.69;100.00;52499.84;5056375;28;20204;-82
2022/10/15 08:01:19;;;;;;;1.13;0.60;;;;;;;-145.69;100.00;52543.41;5056322;28;20196;-82
2022/10/15 08:03:46;;;;;;;1.42;0.38;;;;;;;-145.69;100.00;52555.28;5060676;28;20198;-82
2022/10/15 08:06:12;;;;;;;1.35;0.50;;;;;;;-145.69;100.00;52515.69;5076044;28;20554;-83
2022/10/15 08:08:39;;;;;;;1.13;0.40;;;;;;;-145.69;100.00;52521.63;5074784;28;20441;-83
2022/10/15 08:11:06;;;;;;;3.08;0.80;;;;;;;-145.69;100.00;52555.28;5075824;28;20210;-82
2022/10/15 08:13:33;;;;;;;2.97;0.60;;;;;;;-145.69;100.00;52503.81;5075697;28;20218;-82
2022/10/15 08:16:00;;;;;;;1.75;0.50;;;;;;;-145.69;100.00;52535.47;5071045;28;20210;-82
2022/10/15 08:18:27;;;;;;;0.80;0.50;;;;;;;-145.69;100.00;52543.41;5055417;28;20232;-82
2022/10/15 08:20:53;;;;;;;1.15;0.60;;;;;;;-145.69;100.00;52557.28;5055660;28;20214;-83
2022/10/15 08:23:20;;;;;;;3.47;0.85;;;;;;;-145.69;100.00;52535.47;5055582;28;20207;-82
2022/10/15 08:25:46;;;;;;;2.72;0.50;;;;;;;-145.69;100.00;52499.84;5055757;28;20207;-82
2022/10/15 08:28:13;;;;;;;2.65;0.77;;;;;;;-145.69;100.00;52527.56;5055794;28;20259;-82
2022/10/15 08:30:40;;;;;;;1.35;0.45;;;;;;;-145.69;100.00;52505.78;5055275;28;20727;-83
2022/10/15 08:33:07;;;;;;;1.73;0.65;;;;;;;-145.69;100.00;52523.59;5055225;28;20227;-83
2022/10/15 08:35:37;;;;;;;3.78;0.90;;;;;;;-145.69;100.00;52543.41;5055359;28;20208;-82
2022/10/15 08:38:04;;;;;;;2.97;0.82;;;;;;;-145.69;100.00;52537.47;5055016;28;20211;-80
2022/10/15 08:40:30;;;;;;;3.08;0.63;;;;;;;-145.69;100.00;52511.72;5055333;28;20211;-82
2022/10/15 08:42:57;;;;;;;3.92;0.50;;;;;;;-145.69;100.00;52501.81;5055017;28;20666;-82
2022/10/15 08:45:30;;;;;;;1.48;0.60;;;;;;;-145.69;100.00;52515.69;5055205;28;20743;-82
2022/10/15 08:48:00;;;;;;;5.20;1.52;;;;;;;-145.69;100.00;52499.84;5044523;28;20662;-82
2022/10/15 08:50:38;;;;;;;3.47;1.20;;;;;;;-145.69;100.00;52501.81;5034911;28;20208;-83
2022/10/15 08:53:05;;;;;;;3.30;0.90;;;;;;;-145.69;100.00;52501.81;5035215;28;20228;-83
2022/10/15 08:55:36;;;;;;;4.07;1.02;;;;;;;-145.69;100.00;52484.00;5043711;28;20566;-84
2022/10/15 08:58:12;;;;;;;1.83;0.75;;;;;;;-145.69;100.00;52476.06;5055557;28;20195;-83
2022/10/15 09:00:43;;;;;;;2.70;1.08;;;;;;;-145.69;100.00;52499.84;5054789;28;20250;-82
2022/10/15 09:03:23;;;;;;;3.10;0.90;;;;;;;-145.69;100.00;52489.94;5055132;28;20658;-83
2022/10/15 09:05:57;;;;;;;3.88;0.93;;;;;;;-145.69;100.00;52513.69;5054867;28;20206;-83
2022/10/15 09:08:28;;;;;;;4.35;1.10;;;;;;;-145.69;100.00;52511.72;5054991;28;20203;-83
2022/10/15 09:10:59;;;;;;;2.90;0.85;;;;;;;-145.69;100.00;52476.06;5054800;28;20677;-83
2022/10/15 09:13:30;;;;;;;4.72;1.08;;;;;;;-145.69;100.00;52515.69;5054505;28;20227;-82
2022/10/15 09:16:02;;;;;;;5.80;0.90;;;;;;;-145.69;100.00;52470.13;5054568;28;20218;-83
2022/10/15 09:18:32;;;;;;;11.52;1.10;;;;;;;-145.69;100.00;52519.63;5054608;28;20227;-80
2022/10/15 09:21:02;;;;;;;2.30;0.63;;;;;;;-145.69;100.00;52491.91;5054912;28;20199;-83
2022/10/15 09:23:29;;;;;;;5.97;0.52;;;;;;;-145.69;100.00;52527.56;5054399;28;20199;-82
2022/10/15 09:26:02;;;;;;;0.95;0.60;;;;;;;-145.69;100.00;52515.69;5053250;28;20205;-82
2022/10/15 09:28:37;;;;;;;2.72;0.52;;;;;;;-145.69;100.00;52501.81;5054504;28;20543;-79
2022/10/15 09:31:07;;;;;;;1.98;0.70;;;;;;;-145.69;100.00;52487.97;5054277;28;20203;-81
2022/10/15 09:33:39;;;;;;;1.33;0.50;;;;;;;-145.69;100.00;52509.75;5058969;28;20218;-79
2022/10/15 09:36:19;;;;;;;1.98;0.70;;;;;;;-145.69;100.00;52503.81;5073844;28;20203;-80
2022/10/15 09:38:58;;;;;;;2.30;0.70;;;;;;;-145.69;100.00;52503.81;5074153;28;20245;-80
2022/10/15 09:41:34;;;;;;;4.43;0.70;;;;;;;-145.69;100.00;52493.91;5074108;28;20199;-80
2022/10/15 09:44:02;;;;;;;1.33;0.70;;;;;;;-145.69;100.00;52480.03;5074072;28;20203;-80
2022/10/15 09:46:28;;;;;;;1.75;0.60;;;;;;;-145.69;100.00;52519.63;5074013;28;20214;-82
2022/10/15 09:49:05;;;;;;;1.52;0.88;;;;;;;-145.69;100.00;52507.75;5073962;28;20207;-81
2022/10/15 09:51:38;;;;;;;1.63;0.70;;;;;;;-145.69;100.00;52523.59;5073972;28;20202;-82
2022/10/15 09:54:14;;;;;;;1.92;0.80;;;;;;;-145.69;100.00;52482.00;5073693;28;20222;-83
2022/10/15 09:56:46;;;;;;;3.05;0.63;;;;;;;-145.69;100.00;52509.75;5073645;28;20561;-83
2022/10/15 09:59:16;;;;;;;3.65;1.02;;;;;;;-145.69;100.00;52521.63;5073535;28;20199;-82
2022/10/15 10:01:57;;;;;;;1.73;0.80;;;;;;;-145.69;100.00;52527.56;5073844;28;20205;-82
2022/10/15 10:04:26;;;;;;;2.53;0.50;;;;;;;-145.69;100.00;52487.97;5062921;28;20199;-82
2022/10/15 10:06:57;;;;;;;2.28;0.90;;;;;;;-145.69;100.00;52493.91;5058960;28;20201;-82
2022/10/15 10:09:29;;;;;;;4.82;0.90;;;;;;;-145.69;100.00;52484.00;5072717;28;20198;-81
2022/10/15 10:11:59;;;;;;;2.20;0.70;;;;;;;-145.69;100.00;52456.28;5073552;28;20207;-82
2022/10/15 10:14:29;;;;;;;1.63;0.50;;;;;;;-145.69;100.00;52480.03;5073368;28;20211;-82
2022/10/15 10:17:20;;;;;;;1.52;0.70;;;;;;;-145.69;100.00;52470.13;5073320;28;20209;-81
2022/10/15 10:20:23;;;;;;;2.72;0.95;;;;;;;-145.69;100.00;52484.00;5063566;28;20214;-82
2022/10/15 10:22:52;;;;;;;2.33;0.80;;;;;;;-145.69;100.00;52430.53;5073331;28;20691;-82
2022/10/15 10:25:48;;;;;;;2.08;0.65;;;;;;;-145.69;100.00;52499.84;5073338;28;20214;-82
2022/10/15 10:28:24;;;;;;;2.22;0.80;;;;;;;-145.69;100.00;52484.00;5064023;28;20237;-82
2022/10/15 10:31:02;;;;;;;2.58;0.90;;;;;;;-145.69;100.00;52462.22;5073637;28;20625;-82
2022/10/15 10:33:44;;;;;;;2.50;0.60;;;;;;;-145.69;100.00;52507.75;5069758;28;20214;-82
2022/10/15 10:36:27;;;;;;;2.28;0.70;;;;;;;-145.69;100.00;52474.09;5052539;28;20569;-81
2022/10/15 10:39:02;;;;;;;3.78;0.70;;;;;;;-145.69;100.00;52470.13;5052971;28;20203;-82
2022/10/15 10:41:55;;;;;;;1.80;0.75;;;;;;;-145.69;100.00;52468.16;5053074;28;20626;-82
2022/10/15 10:44:27;;;;;;;1.63;0.50;;;;;;;-145.69;100.00;52497.84;5041925;28;20572;-81
2022/10/15 10:47:20;;;;;;;2.65;0.82;;;;;;;-145.69;100.00;52476.06;5032611;28;20570;-82
2022/10/15 10:49:48;;;;;;;1.58;0.68;;;;;;;-145.69;100.00;52484.00;5032999;28;20208;-82
2022/10/15 10:52:27;;;;;;;2.58;0.77;;;;;;;-145.69;100.00;52493.91;5032706;28;20242;-82
2022/10/15 10:55:04;;;;;;;2.65;0.60;;;;;;;-145.69;100.00;52480.03;5032855;28;20294;-82
2022/10/15 10:57:44;;;;;;;1.77;0.60;;;;;;;-145.69;100.00;52499.84;5032553;28;20211;-81
2022/10/15 11:00:23;;;;;;;2.25;0.80;;;;;;;-145.69;100.00;52476.06;5033231;28;20208;-82
2022/10/15 11:02:53;;;;;;;2.13;0.60;;;;;;;-145.69;100.00;52472.13;5032075;28;20856;-82
2022/10/15 11:05:26;;;;;;;2.28;0.60;;;;;;;-145.69;100.00;52485.97;5033036;28;20473;-81
2022/10/15 11:08:06;;;;;;;1.58;0.60;;;;;;;-145.69;100.00;52484.00;5032687;28;20211;-81
2022/10/15 11:10:39;;;;;;;0.70;0.60;;;;;;;-145.69;100.00;52476.06;5032515;28;20298;-82
2022/10/15 11:13:21;;;;;;;3.38;0.90;;;;;;;-145.69;100.00;52489.94;5045223;28;20600;-82
2022/10/15 11:15:57;;;;;;;7.43;0.82;;;;;;;-145.69;100.00;52450.31;5053015;28;20203;-82
2022/10/15 11:18:48;;;;;;;2.85;0.88;;;;;;;-145.69;100.00;52487.97;5052081;28;20266;-82
2022/10/15 11:21:29;;;;;;;0.80;0.50;;;;;;;-145.69;100.00;52474.09;5053617;28;20288;-82